Time;durP1;ratioP1;P1;durP2;ratioP2;P2;SDS_P1;SDS_P2;PMS_P1;PMS_P2;Temp;Humidity;BMP_temperature;BMP_pressure;BME280_temperature;BME280_humidity;BME280_pressure;Samples;Min_cycle;Max_cycle;Signal;HPM_P1;HPM_P2
2022/08/31 00:05:16;;;;;;;3.42;1.98;;;17.00;99.90;;;;;;5058718;28;25099;-74
2022/08/31 00:07:41;;;;;;;2.88;1.85;;;17.10;99.90;;;;;;5061582;28;25072;-74
2022/08/31 00:10:13;;;;;;;3.17;2.22;;;17.10;99.90;;;;;;5057354;28;25096;-74
2022/08/31 00:12:44;;;;;;;3.92;2.10;;;17.00;99.90;;;;;;5056777;28;25107;-72
2022/08/31 00:15:14;;;;;;;6.93;2.20;;;16.90;99.90;;;;;;5062426;28;25140;-74
2022/08/31 00:17:40;;;;;;;6.97;2.50;;;16.90;99.90;;;;;;5063491;28;25053;-72
2022/08/31 00:20:08;;;;;;;2.45;1.77;;;16.90;99.90;;;;;;5062719;28;25096;-74
2022/08/31 00:22:34;;;;;;;2.42;1.77;;;17.00;99.90;;;;;;5062342;28;25147;-72
2022/08/31 00:24:59;;;;;;;4.07;1.92;;;17.00;99.90;;;;;;5053569;28;25064;-72
2022/08/31 00:27:25;;;;;;;3.80;1.60;;;17.00;99.90;;;;;;5050172;28;25068;-73
2022/08/31 00:29:51;;;;;;;4.10;2.10;;;16.90;99.90;;;;;;5053378;28;25073;-73
2022/08/31 00:32:16;;;;;;;2.83;1.92;;;16.90;99.90;;;;;;5049851;28;25152;-73
2022/08/31 00:34:42;;;;;;;7.78;2.17;;;16.80;99.90;;;;;;5062970;28;25085;-74
2022/08/31 00:37:08;;;;;;;7.30;2.15;;;16.80;99.90;;;;;;5062758;28;25058;-74
2022/08/31 00:39:33;;;;;;;3.00;2.10;;;16.70;99.90;;;;;;5074905;28;25068;-73
2022/08/31 00:41:59;;;;;;;2.67;1.92;;;16.70;99.90;;;;;;5084276;28;25121;-75
2022/08/31 00:44:24;;;;;;;3.13;2.22;;;16.60;99.90;;;;;;5075397;28;25061;-75
2022/08/31 00:46:50;;;;;;;5.57;2.75;;;16.60;99.90;;;;;;5075258;28;25103;-74
2022/08/31 00:49:23;;;;;;;2.30;2.08;;;16.60;99.90;;;;;;5093643;28;25112;-75
2022/08/31 00:51:55;;;;;;;8.43;2.17;;;16.50;99.90;;;;;;5076480;28;25064;-74
2022/08/31 00:54:26;;;;;;;2.70;1.90;;;16.60;99.90;;;;;;5078547;28;25080;-74
2022/08/31 00:56:53;;;;;;;3.47;2.20;;;16.60;99.90;;;;;;5085819;28;25060;-75
2022/08/31 00:59:20;;;;;;;3.35;1.73;;;16.60;99.90;;;;;;5078130;28;25098;-74
2022/08/31 01:01:46;;;;;;;4.03;2.03;;;16.50;99.90;;;;;;5088059;28;25082;-73
2022/08/31 01:04:12;;;;;;;4.40;1.95;;;16.50;99.90;;;;;;5063460;28;25053;-74
2022/08/31 01:06:38;;;;;;;2.20;1.88;;;16.50;99.90;;;;;;5065540;28;25074;-73
2022/08/31 01:09:05;;;;;;;2.15;1.77;;;16.50;99.90;;;;;;5066664;28;25084;-75
2022/08/31 01:11:32;;;;;;;7.18;2.03;;;16.50;99.90;;;;;;5062891;28;25072;-74
2022/08/31 01:13:59;;;;;;;3.47;2.10;;;16.50;99.90;;;;;;5061543;28;25070;-75
2022/08/31 01:16:50;;;;;;;4.30;2.20;;;16.40;99.90;;;;;;5056263;28;25087;-73
2022/08/31 01:19:29;;;;;;;3.60;1.98;;;16.40;99.90;;;;;;5044946;28;25050;-73
2022/08/31 01:22:28;;;;;;;3.25;1.65;;;16.40;99.90;;;;;;5060555;28;25071;-73
2022/08/31 01:24:55;;;;;;;3.28;1.83;;;16.40;99.90;;;;;;5061967;28;25054;-75
2022/08/31 01:27:24;;;;;;;6.63;1.83;;;16.40;99.90;;;;;;5058683;28;25095;-73
2022/08/31 01:29:49;;;;;;;5.32;2.10;;;16.40;99.90;;;;;;5058969;28;25071;-72
2022/08/31 01:32:15;;;;;;;6.90;2.45;;;16.40;99.90;;;;;;5066860;28;25168;-73
2022/08/31 01:34:40;;;;;;;3.30;1.92;;;16.40;99.90;;;;;;5067546;28;25115;-74
2022/08/31 01:37:06;;;;;;;1.48;1.35;;;16.40;99.90;;;;;;5061312;28;25069;-73
2022/08/31 01:39:32;;;;;;;2.78;1.85;;;16.40;99.90;;;;;;5052468;28;25155;-72
2022/08/31 01:41:57;;;;;;;2.25;2.05;;;16.40;99.90;;;;;;5053839;28;25065;-73
2022/08/31 01:44:25;;;;;;;3.20;1.85;;;16.40;99.90;;;;;;5062357;28;25320;-72
2022/08/31 01:46:51;;;;;;;9.90;2.35;;;16.40;99.90;;;;;;5066911;28;25067;-72
2022/08/31 01:49:18;;;;;;;5.57;1.98;;;16.30;99.90;;;;;;5064534;28;25141;-73
2022/08/31 01:51:44;;;;;;;5.75;2.35;;;16.20;99.90;;;;;;5052719;28;25090;-73
2022/08/31 01:54:10;;;;;;;2.00;1.73;;;16.20;99.90;;;;;;5047710;28;25118;-75
2022/08/31 01:56:39;;;;;;;4.38;2.10;;;16.20;99.90;;;;;;5053290;28;25057;-74
2022/08/31 01:59:07;;;;;;;2.55;2.00;;;16.10;99.90;;;;;;5062192;28;25098;-73
2022/08/31 02:01:36;;;;;;;6.63;2.30;;;16.10;99.90;;;;;;5058584;28;25094;-72
2022/08/31 02:04:04;;;;;;;5.13;2.47;;;16.10;99.90;;;;;;5055656;28;25078;-74
2022/08/31 02:06:30;;;;;;;3.88;2.47;;;16.10;99.90;;;;;;5047673;28;25080;-73
2022/08/31 02:08:55;;;;;;;3.65;1.73;;;16.00;99.90;;;;;;5064812;28;25061;-75
2022/08/31 02:11:21;;;;;;;3.50;1.98;;;16.10;99.90;;;;;;5050420;28;25063;-73
2022/08/31 02:13:46;;;;;;;4.13;2.20;;;16.00;99.90;;;;;;5057035;28;25099;-73
2022/08/31 02:16:12;;;;;;;5.18;3.25;;;16.00;99.90;;;;;;5060554;28;25136;-72
2022/08/31 02:18:38;;;;;;;3.40;2.30;;;15.90;99.90;;;;;;5059214;28;25096;-73
2022/08/31 02:21:04;;;;;;;2.38;2.00;;;15.90;99.90;;;;;;5056631;28;25061;-72
2022/08/31 02:23:30;;;;;;;2.30;1.67;;;15.80;99.90;;;;;;5059192;28;25080;-75
2022/08/31 02:25:56;;;;;;;3.90;1.85;;;15.80;99.90;;;;;;5061515;28;25127;-73
2022/08/31 02:28:22;;;;;;;3.83;1.90;;;15.90;99.90;;;;;;5061817;28;25121;-75
2022/08/31 02:30:48;;;;;;;8.68;2.13;;;15.90;99.90;;;;;;5066361;28;25136;-73
2022/08/31 02:33:14;;;;;;;5.88;1.73;;;15.90;99.90;;;;;;5064340;28;25073;-75
2022/08/31 02:35:41;;;;;;;4.18;2.00;;;15.90;99.90;;;;;;5059473;28;25083;-74
2022/08/31 02:38:08;;;;;;;2.55;1.98;;;15.90;99.90;;;;;;5061291;28;25071;-73
2022/08/31 02:40:37;;;;;;;3.88;1.92;;;16.00;99.90;;;;;;5052862;28;25053;-72
2022/08/31 02:43:04;;;;;;;6.45;1.70;;;15.90;99.90;;;;;;5061577;28;25101;-74
2022/08/31 02:45:30;;;;;;;4.47;2.10;;;15.80;99.90;;;;;;5058385;28;25066;-74
2022/08/31 02:47:56;;;;;;;3.83;1.90;;;15.80;99.90;;;;;;5061004;28;25154;-73
2022/08/31 02:50:21;;;;;;;3.53;2.42;;;15.70;99.90;;;;;;5054269;28;25060;-73
2022/08/31 02:52:48;;;;;;;4.85;2.13;;;15.70;99.90;;;;;;5051534;28;25059;-74
2022/08/31 02:55:15;;;;;;;3.63;2.08;;;15.80;99.90;;;;;;5057238;28;25041;-75
2022/08/31 02:57:40;;;;;;;2.15;1.95;;;15.70;99.90;;;;;;5052886;28;25121;-74
2022/08/31 03:00:07;;;;;;;5.53;1.90;;;15.60;99.90;;;;;;5057237;28;25131;-74
2022/08/31 03:02:33;;;;;;;2.63;1.92;;;15.70;99.90;;;;;;5056157;28;25082;-74
2022/08/31 03:05:03;;;;;;;3.65;1.95;;;15.70;99.90;;;;;;5060405;28;25085;-74
2022/08/31 03:07:29;;;;;;;3.30;2.03;;;15.60;99.90;;;;;;5052161;28;25067;-74
2022/08/31 03:09:56;;;;;;;3.53;1.77;;;15.70;99.90;;;;;;5060595;28;25102;-75
2022/08/31 03:12:21;;;;;;;5.15;3.22;;;15.70;99.90;;;;;;5060851;28;25057;-75
2022/08/31 03:14:47;;;;;;;1.65;1.55;;;15.60;99.90;;;;;;5059014;28;25058;-72
2022/08/31 03:17:13;;;;;;;2.10;1.95;;;15.60;99.90;;;;;;5047927;28;25061;-73
2022/08/31 03:19:38;;;;;;;6.05;2.28;;;15.50;99.90;;;;;;5057892;28;25073;-74
2022/08/31 03:22:04;;;;;;;3.10;2.00;;;15.50;99.90;;;;;;5058306;28;25076;-73
2022/08/31 03:24:30;;;;;;;2.15;1.80;;;15.40;99.90;;;;;;5056144;28;25068;-72
2022/08/31 03:26:56;;;;;;;5.75;1.88;;;15.50;99.90;;;;;;5050234;28;25057;-73
2022/08/31 03:29:22;;;;;;;3.22;1.88;;;15.40;99.90;;;;;;5051992;28;25081;-73
2022/08/31 03:31:47;;;;;;;2.08;1.88;;;15.40;99.90;;;;;;5063521;28;25071;-73
2022/08/31 03:34:13;;;;;;;2.45;1.60;;;15.40;99.90;;;;;;5057788;28;25131;-74
2022/08/31 03:36:38;;;;;;;2.22;1.77;;;15.40;99.90;;;;;;5050187;28;25060;-73
2022/08/31 03:39:04;;;;;;;2.47;2.00;;;15.50;99.90;;;;;;5051053;28;25143;-73
2022/08/31 03:41:30;;;;;;;7.05;2.28;;;15.40;99.90;;;;;;5061724;28;25168;-74
2022/08/31 03:43:55;;;;;;;2.55;1.50;;;15.30;99.90;;;;;;5043382;28;25073;-74
2022/08/31 03:46:22;;;;;;;2.17;1.70;;;15.40;99.90;;;;;;5043999;28;25094;-72
2022/08/31 03:48:48;;;;;;;3.88;1.83;;;15.30;99.90;;;;;;5063263;28;25098;-71
2022/08/31 03:51:15;;;;;;;1.60;1.50;;;15.30;99.90;;;;;;5064687;28;25073;-71
2022/08/31 03:53:41;;;;;;;2.83;1.90;;;15.30;99.90;;;;;;5061011;28;25111;-72
2022/08/31 03:56:08;;;;;;;2.40;1.70;;;15.30;99.90;;;;;;5063318;28;25087;-74
2022/08/31 03:58:35;;;;;;;6.22;1.95;;;15.30;99.90;;;;;;5050776;28;25054;-73
2022/08/31 04:01:01;;;;;;;3.72;1.80;;;15.20;99.90;;;;;;5056968;28;25052;-73
2022/08/31 04:03:28;;;;;;;4.40;2.50;;;15.20;99.90;;;;;;5064579;28;25063;-72
2022/08/31 04:05:54;;;;;;;2.90;1.70;;;15.10;99.90;;;;;;5069213;28;25070;-72
2022/08/31 04:08:20;;;;;;;5.63;1.70;;;15.10;99.90;;;;;;5064359;28;25122;-73
2022/08/31 04:10:49;;;;;;;2.88;1.65;;;15.10;99.90;;;;;;5059868;28;25061;-73
2022/08/31 04:13:14;;;;;;;2.55;1.77;;;15.10;99.90;;;;;;5063274;28;25075;-73
2022/08/31 04:15:40;;;;;;;2.72;1.70;;;15.10;99.90;;;;;;5063007;28;25145;-73
2022/08/31 04:18:06;;;;;;;2.65;2.10;;;15.10;99.90;;;;;;5061113;28;25081;-73
2022/08/31 04:20:36;;;;;;;3.38;1.67;;;15.00;99.90;;;;;;5058521;28;25076;-72
2022/08/31 04:23:03;;;;;;;5.22;2.13;;;15.00;99.90;;;;;;5053475;28;25100;-72
2022/08/31 04:25:29;;;;;;;2.05;1.40;;;15.00;99.90;;;;;;5058315;28;25164;-73
2022/08/31 04:27:55;;;;;;;2.92;1.85;;;14.90;99.90;;;;;;5058161;28;25072;-72
2022/08/31 04:30:21;;;;;;;2.85;1.67;;;14.80;99.90;;;;;;5062575;28;25059;-73
2022/08/31 04:32:47;;;;;;;2.45;1.80;;;14.90;99.90;;;;;;5069333;28;25090;-73
2022/08/31 04:35:13;;;;;;;7.20;1.92;;;15.00;99.90;;;;;;5071895;28;25055;-73
2022/08/31 04:37:40;;;;;;;1.42;1.33;;;14.90;99.90;;;;;;5061834;28;25073;-72
2022/08/31 04:40:18;;;;;;;5.00;1.80;;;14.80;99.90;;;;;;5058307;28;25102;-73
2022/08/31 04:42:45;;;;;;;2.25;1.67;;;14.80;99.90;;;;;;5064624;28;25162;-73
2022/08/31 04:45:12;;;;;;;3.30;1.48;;;14.80;99.90;;;;;;5068948;28;25063;-71
2022/08/31 04:47:38;;;;;;;2.75;1.90;;;14.80;99.90;;;;;;5075161;28;25091;-72
2022/08/31 04:50:06;;;;;;;5.97;1.63;;;14.70;99.90;;;;;;5063004;28;25059;-72
2022/08/31 04:52:31;;;;;;;1.60;1.48;;;14.70;99.90;;;;;;5063013;28;25101;-72
2022/08/31 04:54:57;;;;;;;4.60;1.50;;;14.70;99.90;;;;;;5066243;28;25083;-71
2022/08/31 04:57:23;;;;;;;3.00;1.92;;;14.70;99.90;;;;;;5062096;28;25089;-71
2022/08/31 04:59:48;;;;;;;2.67;2.03;;;14.70;99.90;;;;;;5071064;28;25063;-73
2022/08/31 05:02:14;;;;;;;3.38;1.80;;;14.70;99.90;;;;;;5058969;28;25150;-71
2022/08/31 05:04:39;;;;;;;3.63;1.70;;;14.70;99.90;;;;;;5049709;28;25065;-72
2022/08/31 05:07:05;;;;;;;2.45;1.60;;;14.70;99.90;;;;;;5058666;28;25051;-71
2022/08/31 05:09:31;;;;;;;3.28;1.52;;;14.70;99.90;;;;;;5059174;28;25075;-73
2022/08/31 05:11:56;;;;;;;2.22;1.80;;;14.70;99.90;;;;;;5059059;28;25094;-72
2022/08/31 05:14:23;;;;;;;3.90;1.80;;;14.70;99.90;;;;;;5055895;28;25169;-74
2022/08/31 05:16:49;;;;;;;2.50;2.00;;;14.70;99.90;;;;;;5057247;28;25058;-72
2022/08/31 05:19:15;;;;;;;2.33;1.80;;;14.60;99.90;;;;;;5058626;28;25161;-74
2022/08/31 05:21:42;;;;;;;5.60;1.67;;;14.60;99.90;;;;;;5060425;28;25095;-73
2022/08/31 05:24:11;;;;;;;9.25;2.28;;;14.60;99.90;;;;;;5058735;28;25116;-74
2022/08/31 05:26:47;;;;;;;11.48;1.90;;;14.60;99.90;;;;;;5061071;28;25101;-73
2022/08/31 05:29:14;;;;;;;2.40;1.42;;;14.70;99.90;;;;;;5064065;28;25076;-73
2022/08/31 05:31:40;;;;;;;3.22;1.48;;;14.60;99.90;;;;;;5054052;28;25135;-73
2022/08/31 05:34:06;;;;;;;5.55;1.77;;;14.70;99.90;;;;;;5057619;28;25098;-73
2022/08/31 05:36:33;;;;;;;7.47;1.77;;;14.60;99.90;;;;;;5058422;28;25093;-74
2022/08/31 05:38:59;;;;;;;2.45;1.48;;;14.70;99.90;;;;;;5062767;28;25078;-74
2022/08/31 05:41:26;;;;;;;1.67;1.58;;;14.70;99.90;;;;;;5066169;28;25142;-74
2022/08/31 05:43:52;;;;;;;2.45;1.58;;;14.70;99.90;;;;;;5058779;28;25056;-73
2022/08/31 05:46:17;;;;;;;3.65;1.50;;;14.70;99.90;;;;;;5058831;28;25070;-73
2022/08/31 05:48:43;;;;;;;3.25;1.42;;;14.70;99.90;;;;;;5058039;28;25072;-75
2022/08/31 05:51:13;;;;;;;2.35;1.63;;;14.70;99.90;;;;;;5064333;28;25048;-73
2022/08/31 05:53:39;;;;;;;1.83;1.30;;;14.70;99.90;;;;;;5057439;28;25070;-72
2022/08/31 05:56:24;;;;;;;4.75;1.80;;;14.80;99.90;;;;;;5050476;28;25169;-73
2022/08/31 05:58:50;;;;;;;5.13;1.40;;;14.80;99.90;;;;;;5059118;28;25056;-72
2022/08/31 06:01:22;;;;;;;2.70;1.70;;;14.80;99.90;;;;;;5050440;28;25055;-73
2022/08/31 06:03:48;;;;;;;1.40;1.30;;;14.80;99.90;;;;;;5062599;28;25070;-72
2022/08/31 06:06:15;;;;;;;3.33;1.60;;;14.80;99.90;;;;;;5062941;28;25069;-72
2022/08/31 06:08:41;;;;;;;3.85;1.45;;;14.80;99.90;;;;;;5065361;28;25058;-74
2022/08/31 06:11:12;;;;;;;1.45;1.30;;;14.70;99.90;;;;;;5065349;28;25162;-72
2022/08/31 06:13:38;;;;;;;1.05;1.02;;;14.70;99.90;;;;;;5050065;28;25099;-73
2022/08/31 06:16:05;;;;;;;2.60;1.17;;;14.80;99.90;;;;;;5067629;28;25056;-74
2022/08/31 06:18:31;;;;;;;3.80;1.30;;;14.90;99.90;;;;;;5057211;28;25052;-72
2022/08/31 06:21:07;;;;;;;3.92;1.75;;;14.90;99.90;;;;;;5060641;28;25072;-73
2022/08/31 06:23:37;;;;;;;4.20;1.40;;;14.80;99.90;;;;;;5062171;28;25148;-73
2022/08/31 06:26:14;;;;;;;3.75;1.10;;;14.90;99.90;;;;;;5056265;28;25089;-72
2022/08/31 06:28:44;;;;;;;2.75;1.27;;;15.00;99.90;;;;;;5057525;28;25060;-73
2022/08/31 06:31:17;;;;;;;2.50;1.10;;;15.00;99.90;;;;;;5053263;28;25064;-76
2022/08/31 06:33:43;;;;;;;;;;;15.00;99.90;;;;;;5057188;28;25134;-73
2022/08/31 06:36:14;;;;;;;1.98;1.67;;;15.10;99.90;;;;;;5062006;28;25056;-72
2022/08/31 06:38:40;;;;;;;3.70;2.17;;;15.10;99.90;;;;;;5050652;28;25101;-71
2022/08/31 06:41:13;;;;;;;7.38;2.05;;;15.20;99.90;;;;;;5056011;28;25053;-74
2022/08/31 06:43:39;;;;;;;2.85;1.60;;;15.30;99.90;;;;;;5054480;28;25115;-76
2022/08/31 06:46:05;;;;;;;3.00;1.35;;;15.40;99.90;;;;;;5055911;28;25153;-74
2022/08/31 06:48:31;;;;;;;3.83;1.25;;;15.50;99.90;;;;;;5052640;28;25068;-74
2022/08/31 06:50:57;;;;;;;1.02;0.98;;;15.50;99.90;;;;;;5058117;28;25072;-73
2022/08/31 06:53:23;;;;;;;1.85;0.85;;;15.50;99.90;;;;;;5058664;28;25182;-76
2022/08/31 06:55:49;;;;;;;2.85;1.45;;;15.50;99.90;;;;;;5061188;28;25051;-72
2022/08/31 06:58:14;;;;;;;3.17;0.90;;;15.60;99.90;;;;;;5054150;28;25141;-73
2022/08/31 07:00:40;;;;;;;5.47;1.30;;;15.60;99.90;;;;;;5053984;28;25152;-74
2022/08/31 07:03:22;;;;;;;1.75;1.02;;;15.60;99.90;;;;;;5052304;28;25071;-74
2022/08/31 07:05:52;;;;;;;0.90;0.90;;;15.70;99.90;;;;;;5060013;28;25072;-76
2022/08/31 07:08:18;;;;;;;2.97;0.90;;;15.80;99.90;;;;;;5054596;28;26201;-73
2022/08/31 07:10:44;;;;;;;1.48;1.02;;;15.80;99.90;;;;;;5063881;28;25096;-74
2022/08/31 07:13:10;;;;;;;1.08;1.00;;;15.80;99.90;;;;;;5060120;28;25083;-74
2022/08/31 07:15:36;;;;;;;1.65;1.00;;;15.80;99.90;;;;;;5060173;28;25155;-73
2022/08/31 07:18:02;;;;;;;2.88;1.27;;;15.90;99.90;;;;;;5063097;28;25072;-74
2022/08/31 07:20:27;;;;;;;2.88;1.20;;;16.00;99.90;;;;;;5056523;28;25061;-73
2022/08/31 07:22:53;;;;;;;1.15;1.00;;;16.10;99.90;;;;;;5059081;28;25087;-73
2022/08/31 07:25:18;;;;;;;1.67;1.10;;;16.10;99.90;;;;;;5065744;28;25146;-74
2022/08/31 07:27:45;;;;;;;7.07;1.55;;;16.30;99.90;;;;;;5056429;28;25149;-74
2022/08/31 07:30:12;;;;;;;2.28;1.30;;;16.30;99.90;;;;;;5051192;28;25048;-75
2022/08/31 07:32:37;;;;;;;3.25;1.50;;;16.30;99.90;;;;;;5060271;28;25084;-73
2022/08/31 07:35:04;;;;;;;2.40;2.20;;;16.40;99.90;;;;;;5055685;28;25096;-73
2022/08/31 07:43:03;;;;;;;0.85;0.85;;;16.40;99.90;;;;;;5067014;28;25063;-75
2022/08/31 07:45:29;;;;;;;2.22;1.38;;;16.50;99.90;;;;;;5078184;28;25055;-74
2022/08/31 07:47:59;;;;;;;2.50;1.08;;;16.60;99.90;;;;;;5083608;28;25071;-75
2022/08/31 07:50:26;;;;;;;1.35;1.10;;;16.70;99.90;;;;;;5083053;28;25064;-73
2022/08/31 07:52:53;;;;;;;2.38;0.90;;;16.80;99.90;;;;;;5089694;28;25066;-75
2022/08/31 07:55:21;;;;;;;1.42;1.15;;;16.90;99.90;;;;;;5092475;28;25078;-72
2022/08/31 07:57:47;;;;;;;2.40;1.10;;;17.00;99.90;;;;;;5074354;28;25141;-72
2022/08/31 08:00:18;;;;;;;1.48;1.38;;;17.20;99.90;;;;;;5083419;28;25063;-75
2022/08/31 08:02:46;;;;;;;3.05;0.98;;;17.30;99.90;;;;;;5086158;28;25058;-75
2022/08/31 08:05:21;;;;;;;4.80;1.25;;;17.50;99.90;;;;;;5084485;28;25062;-73
2022/08/31 08:07:53;;;;;;;3.50;1.05;;;17.70;99.90;;;;;;5069441;28;25117;-76
2022/08/31 08:10:22;;;;;;;0.97;0.87;;;18.00;99.90;;;;;;5067020;28;25172;-77
2022/08/31 08:12:55;;;;;;;0.98;0.88;;;18.00;99.90;;;;;;5072736;28;25067;-76
2022/08/31 08:15:24;;;;;;;2.00;1.30;;;18.00;99.90;;;;;;5072686;28;25064;-75
2022/08/31 08:17:50;;;;;;;4.95;1.67;;;18.10;99.90;;;;;;5064969;28;25102;-74
2022/08/31 08:20:16;;;;;;;1.35;1.00;;;18.10;99.90;;;;;;5071550;28;25069;-77
2022/08/31 08:22:42;;;;;;;1.50;1.20;;;18.40;99.90;;;;;;5079631;28;25060;-73
2022/08/31 08:25:09;;;;;;;3.13;1.40;;;18.50;99.90;;;;;;5061088;28;25089;-75
2022/08/31 08:27:34;;;;;;;3.55;0.98;;;18.60;99.90;;;;;;5059896;28;25129;-76
2022/08/31 08:30:00;;;;;;;1.70;1.38;;;18.80;99.90;;;;;;5073291;28;25080;-73
2022/08/31 08:32:26;;;;;;;2.58;1.48;;;19.10;99.90;;;;;;5060507;28;25138;-75
2022/08/31 08:34:51;;;;;;;3.85;1.38;;;19.00;99.90;;;;;;5059010;28;25162;-76
2022/08/31 08:37:17;;;;;;;0.90;0.90;;;19.10;99.90;;;;;;5059532;28;25112;-74
2022/08/31 08:39:43;;;;;;;1.02;0.93;;;19.60;99.90;;;;;;5056816;28;25134;-76
2022/08/31 08:42:14;;;;;;;2.20;1.73;;;19.70;99.90;;;;;;5065022;28;25084;-73
2022/08/31 08:44:42;;;;;;;1.88;1.15;;;19.60;99.90;;;;;;5061159;28;25155;-76
2022/08/31 08:47:19;;;;;;;2.15;1.00;;;19.70;99.90;;;;;;5056307;28;25082;-76
2022/08/31 08:49:49;;;;;;;2.50;1.13;;;20.00;99.90;;;;;;5054863;28;25085;-76
2022/08/31 08:52:20;;;;;;;3.92;1.40;;;19.90;99.90;;;;;;5055916;28;25061;-76
2022/08/31 08:54:48;;;;;;;1.35;1.20;;;19.80;99.90;;;;;;5055388;28;25055;-78
2022/08/31 08:57:19;;;;;;;1.48;1.27;;;20.20;99.90;;;;;;5058264;28;25087;-74
2022/08/31 08:59:47;;;;;;;3.80;0.95;;;20.20;99.90;;;;;;5068005;28;25065;-74
2022/08/31 09:02:45;;;;;;;2.22;1.15;;;20.30;99.90;;;;;;5066580;28;25075;-77
2022/08/31 09:05:17;;;;;;;3.65;1.05;;;20.10;99.90;;;;;;5067108;28;25076;-77
2022/08/31 09:08:13;;;;;;;2.53;1.30;;;20.20;99.90;;;;;;5057314;28;25066;-74
2022/08/31 09:10:44;;;;;;;1.33;1.00;;;20.50;99.90;;;;;;5056480;28;25059;-78
2022/08/31 09:13:29;;;;;;;2.72;1.02;;;20.40;99.90;;;;;;5060607;28;25079;-76
2022/08/31 09:16:08;;;;;;;1.15;1.02;;;20.40;99.90;;;;;;5054273;28;25088;-75
2022/08/31 09:18:53;;;;;;;2.75;1.30;;;20.60;99.90;;;;;;5062694;28;25052;-77
2022/08/31 09:21:33;;;;;;;4.38;1.45;;;20.50;99.90;;;;;;5064744;28;25121;-74
2022/08/31 09:24:06;;;;;;;2.95;1.00;;;20.60;99.90;;;;;;5064424;28;25121;-78
2022/08/31 09:27:03;;;;;;;1.92;0.80;;;21.00;99.90;;;;;;5057148;28;25108;-77
2022/08/31 09:29:31;;;;;;;4.18;1.00;;;21.20;99.90;;;;;;5055332;28;25133;-75
2022/08/31 09:32:08;;;;;;;1.75;1.00;;;21.40;99.90;;;;;;5065531;28;25057;-74
2022/08/31 09:34:37;;;;;;;4.35;1.10;;;21.40;99.90;;;;;;5058915;28;25089;-77
2022/08/31 09:37:18;;;;;;;1.95;1.05;;;21.20;99.90;;;;;;5057246;28;25079;-75
2022/08/31 09:39:46;;;;;;;4.00;1.30;;;21.20;99.90;;;;;;5059617;28;25168;-77
2022/08/31 09:42:29;;;;;;;1.83;1.17;;;21.10;99.90;;;;;;5057144;28;25048;-73
2022/08/31 09:44:58;;;;;;;1.95;1.15;;;21.00;99.90;;;;;;5052827;28;25075;-75
2022/08/31 09:47:54;;;;;;;3.35;1.10;;;21.10;99.90;;;;;;5059131;28;25070;-74
2022/08/31 09:50:29;;;;;;;2.63;1.17;;;21.10;99.90;;;;;;5049515;28;25050;-73
2022/08/31 09:56:18;;;;;;;2.58;1.25;;;20.90;99.90;;;;;;5051319;28;25078;-73
2022/08/31 09:58:44;;;;;;;;;;;21.00;99.90;;;;;;5064472;28;25088;-74
2022/08/31 10:01:27;;;;;;;1.45;1.17;;;20.90;99.90;;;;;;5054848;28;24099;-75
2022/08/31 10:04:14;;;;;;;1.33;1.17;;;20.80;99.90;;;;;;5059554;28;25113;-76
2022/08/31 10:07:13;;;;;;;3.88;1.45;;;20.90;99.90;;;;;;5067849;28;25056;-77
2022/08/31 10:09:45;;;;;;;3.40;1.55;;;21.00;99.90;;;;;;5054354;28;25080;-74
2022/08/31 10:12:33;;;;;;;2.22;1.15;;;21.30;99.90;;;;;;5069547;28;25071;-76
2022/08/31 10:15:04;;;;;;;2.17;1.40;;;21.10;99.90;;;;;;5068162;28;25074;-77
2022/08/31 10:17:36;;;;;;;1.80;1.38;;;21.20;99.90;;;;;;5081597;28;25071;-76
2022/08/31 10:20:38;;;;;;;1.02;0.85;;;21.20;99.90;;;;;;5081469;28;25078;-74
2022/08/31 10:23:19;;;;;;;1.85;1.05;;;21.40;99.90;;;;;;5065614;28;25087;-74
2022/08/31 10:25:51;;;;;;;3.67;1.00;;;21.30;99.90;;;;;;5066170;28;25063;-72
2022/08/31 10:28:23;;;;;;;1.48;1.10;;;21.20;99.90;;;;;;5080999;28;25085;-74
2022/08/31 10:30:58;;;;;;;1.55;1.00;;;21.00;99.90;;;;;;5076465;28;25097;-76
2022/08/31 10:36:38;;;;;;;1.50;1.10;;;21.50;99.90;;;;;;5076699;28;25132;-74
2022/08/31 10:39:16;;;;;;;1.63;1.00;;;21.40;99.90;;;;;;5070270;28;25074;-74
2022/08/31 10:41:48;;;;;;;2.78;1.00;;;21.50;99.90;;;;;;5070005;28;25071;-77
2022/08/31 10:44:25;;;;;;;0.73;0.73;;;21.60;99.90;;;;;;5094709;28;25085;-74
2022/08/31 10:46:53;;;;;;;3.70;1.50;;;21.50;99.90;;;;;;5071915;28;25053;-74
2022/08/31 10:49:20;;;;;;;6.00;0.93;;;21.40;99.90;;;;;;5075432;28;25071;-74
2022/08/31 10:52:17;;;;;;;1.92;0.95;;;21.40;99.90;;;;;;5065673;28;25078;-76
2022/08/31 10:54:54;;;;;;;3.28;1.33;;;21.30;99.90;;;;;;5055433;28;25061;-77
2022/08/31 10:57:44;;;;;;;8.25;1.20;;;21.30;99.90;;;;;;5076775;28;25053;-73
2022/08/31 11:03:11;;;;;;;1.10;1.00;;;21.70;99.90;;;;;;5055845;28;25064;-75
2022/08/31 11:05:46;;;;;;;1.75;1.23;;;21.80;99.90;;;;;;5055360;28;25153;-76
2022/08/31 11:08:32;;;;;;;3.03;1.23;;;21.80;99.90;;;;;;5049713;28;25107;-70
2022/08/31 11:10:58;;;;;;;3.35;1.27;;;22.00;99.90;;;;;;5064170;28;25070;-76
2022/08/31 11:13:39;;;;;;;3.83;1.15;;;22.20;99.90;;;;;;5054179;28;25108;-73
2022/08/31 11:16:39;;;;;;;2.37;1.03;;;22.30;99.90;;;;;;5060715;28;25132;-73
2022/08/31 11:19:36;;;;;;;2.58;1.08;;;22.30;99.90;;;;;;5064332;28;25060;-72
2022/08/31 11:22:36;;;;;;;3.72;1.73;;;22.50;99.90;;;;;;5063888;28;25067;-74
2022/08/31 11:25:02;;;;;;;1.35;0.98;;;22.30;99.90;;;;;;5061392;28;25056;-75
2022/08/31 11:27:51;;;;;;;2.35;1.48;;;22.70;99.90;;;;;;5050948;28;25061;-78
2022/08/31 11:30:27;;;;;;;4.53;1.20;;;22.50;99.90;;;;;;5053104;28;25067;-75
2022/08/31 11:33:06;;;;;;;2.35;1.20;;;22.90;99.90;;;;;;5056243;28;25130;-76
2022/08/31 11:35:59;;;;;;;2.28;1.25;;;23.00;99.90;;;;;;5046612;28;25102;-74
2022/08/31 11:38:50;;;;;;;1.23;1.10;;;23.30;99.90;;;;;;5054608;28;25079;-73
2022/08/31 11:41:35;;;;;;;1.05;1.02;;;22.80;99.90;;;;;;5054054;28;25068;-74
2022/08/31 11:44:03;;;;;;;3.42;1.20;;;22.40;99.90;;;;;;5062404;28;25107;-72
2022/08/31 11:46:38;;;;;;;2.88;1.25;;;23.20;99.90;;;;;;5063235;28;25078;-74
2022/08/31 11:49:04;;;;;;;5.25;1.33;;;23.90;99.90;;;;;;5054822;28;25085;-75
2022/08/31 11:51:33;;;;;;;3.78;1.50;;;24.40;99.90;;;;;;5048191;28;25087;-76
2022/08/31 11:54:00;;;;;;;3.60;1.60;;;24.30;98.80;;;;;;5052687;28;25080;-78
2022/08/31 11:56:39;;;;;;;4.22;1.23;;;24.30;94.70;;;;;;5064984;28;25050;-77
2022/08/31 11:59:38;;;;;;;3.53;1.35;;;24.40;91.30;;;;;;5071359;28;25080;-74
2022/08/31 12:02:20;;;;;;;1.27;1.02;;;24.20;92.20;;;;;;5049308;28;25098;-74
2022/08/31 12:04:46;;;;;;;1.90;1.30;;;24.40;82.20;;;;;;5057501;28;25089;-75
2022/08/31 12:07:29;;;;;;;1.33;0.90;;;24.60;83.90;;;;;;5054443;28;25072;-73
2022/08/31 12:10:13;;;;;;;5.03;1.10;;;24.60;84.30;;;;;;5051492;28;25063;-75
2022/08/31 12:12:45;;;;;;;3.28;1.20;;;24.90;64.20;;;;;;5059584;28;25065;-74
2022/08/31 12:15:22;;;;;;;6.25;1.83;;;24.40;65.90;;;;;;5051980;28;25068;-73
2022/08/31 12:18:30;;;;;;;2.13;1.17;;;24.40;67.90;;;;;;5052048;28;25060;-74
2022/08/31 12:24:17;;;;;;;1.70;1.20;;;25.20;53.00;;;;;;5061086;28;25150;-74
2022/08/31 12:26:54;;;;;;;2.15;1.23;;;25.00;52.00;;;;;;5061681;28;25124;-75
2022/08/31 12:29:30;;;;;;;2.63;1.35;;;24.70;46.30;;;;;;5068952;28;25061;-75
2022/08/31 12:32:08;;;;;;;2.28;2.08;;;24.50;58.60;;;;;;5066955;28;25073;-75
2022/08/31 12:34:38;;;;;;;2.75;1.30;;;24.70;65.40;;;;;;5066404;28;25058;-75
2022/08/31 12:37:25;;;;;;;1.48;1.00;;;24.50;54.90;;;;;;5067477;28;25059;-75
2022/08/31 12:40:12;;;;;;;2.95;1.55;;;25.00;58.00;;;;;;5065690;28;25064;-74
2022/08/31 12:43:02;;;;;;;2.70;1.10;;;24.60;43.30;;;;;;5058919;28;25075;-76
2022/08/31 12:45:54;;;;;;;2.00;1.27;;;24.60;51.10;;;;;;5065178;28;25071;-74
2022/08/31 12:48:35;;;;;;;1.65;1.40;;;24.20;65.20;;;;;;5057998;28;25063;-75
2022/08/31 12:51:31;;;;;;;2.05;1.27;;;24.70;52.10;;;;;;5071570;28;25123;-75
2022/08/31 12:54:15;;;;;;;3.88;1.40;;;24.70;45.30;;;;;;5063294;28;25088;-77
2022/08/31 12:57:01;;;;;;;2.88;1.67;;;24.50;47.00;;;;;;5064834;28;25153;-78
2022/08/31 12:59:48;;;;;;;1.75;1.30;;;24.20;52.80;;;;;;5056987;28;25066;-74
2022/08/31 13:02:14;;;;;;;2.20;1.00;;;24.40;56.50;;;;;;5057954;28;25084;-76
2022/08/31 13:04:47;;;;;;;2.22;1.60;;;24.70;44.70;;;;;;5060526;28;25070;-77
2022/08/31 13:07:32;;;;;;;4.53;1.23;;;24.30;48.50;;;;;;5069636;28;25088;-75
2022/08/31 13:10:09;;;;;;;2.00;1.20;;;24.70;54.10;;;;;;5059601;28;25084;-78
2022/08/31 13:12:36;;;;;;;3.50;1.60;;;24.40;54.90;;;;;;5056464;28;25071;-78
2022/08/31 13:15:03;;;;;;;2.35;1.27;;;24.80;53.60;;;;;;5064283;28;25067;-77
2022/08/31 13:17:39;;;;;;;3.10;1.20;;;25.10;34.70;;;;;;5069868;28;25109;-79
2022/08/31 13:20:05;;;;;;;4.63;1.50;;;25.20;36.00;;;;;;5056641;28;25081;-74
2022/08/31 13:22:41;;;;;;;4.38;1.52;;;25.10;40.10;;;;;;5068686;28;25067;-78
2022/08/31 13:25:15;;;;;;;3.17;1.60;;;24.90;29.30;;;;;;5069794;28;25054;-74
2022/08/31 13:27:49;;;;;;;1.55;1.20;;;24.70;34.30;;;;;;5067716;28;25077;-75
2022/08/31 13:30:19;;;;;;;4.97;1.70;;;24.80;37.70;;;;;;5062388;28;25059;-76